Time,TemperatureF,DewpointF,PressureIn,WindDirection,WindDirectionDegrees,WindSpeedMPH,WindSpeedGustMPH,Humidity,HourlyPrecipIn,Conditions,Clouds,dailyrainin,SoftwareType,DateUTC
2013-10-21 00:01:00,46.9,44.4,30.04,West,269,0.0,0.0,91,0.00,,,0.00,Wunderground v.1.15,2013-10-21 04:01:00,
2013-10-21 00:02:00,46.8,44.3,30.03,West,269,0.0,0.0,91,0.00,,,0.00,Wunderground v.1.15,2013-10-21 04:02:00,
2013-10-21 00:04:00,46.8,44.0,30.03,West,269,0.0,0.0,90,0.00,,,0.00,Wunderground v.1.15,2013-10-21 04:04:00,
2013-10-21 00:07:00,46.8,44.0,30.03,West,269,0.0,0.0,90,0.00,,,0.00,Wunderground v.1.15,2013-10-21 04:07:00,
2013-10-21 00:08:00,46.8,44.3,30.03,West,269,0.0,0.0,91,0.00,,,0.00,Wunderground v.1.15,2013-10-21 04:08:00,
2013-10-21 00:12:00,46.8,44.3,30.04,West,269,0.0,0.0,91,0.00,,,0.00,Wunderground v.1.15,2013-10-21 04:12:00,
2013-10-21 00:17:00,46.8,44.3,30.04,West,269,0.0,0.0,91,0.00,,,0.00,Wunderground v.1.15,2013-10-21 04:17:00,
2013-10-21 00:23:00,46.7,43.9,30.04,West,269,0.0,0.0,90,0.00,,,0.00,Wunderground v.1.15,2013-10-21 04:23:00,
2013-10-21 00:28:00,46.7,43.9,30.03,West,269,0.0,0.0,90,0.00,,,0.00,Wunderground v.1.15,2013-10-21 04:28:00,
2013-10-21 00:34:00,46.7,43.9,30.03,West,269,0.0,1.0,90,0.00,,,0.00,Wunderground v.1.15,2013-10-21 04:34:00,
2013-10-21 00:40:00,46.6,43.8,30.03,West,269,0.0,0.0,90,0.00,,,0.00,Wunderground v.1.15,2013-10-21 04:40:00,
2013-10-21 00:48:00,46.5,43.7,30.03,West,269,0.0,0.0,90,0.00,,,0.00,Wunderground v.1.15,2013-10-21 04:48:00,
2013-10-21 00:54:00,46.4,43.6,30.03,West,269,0.0,0.0,90,0.00,,,0.00,Wunderground v.1.15,2013-10-21 04:54:00,
2013-10-21 01:00:00,46.3,43.5,30.03,West,269,0.0,0.0,90,0.00,,,0.00,Wunderground v.1.15,2013-10-21 05:00:00,
2013-10-21 01:06:00,46.2,43.4,30.03,West,269,0.0,0.0,90,0.00,,,0.00,Wunderground v.1.15,2013-10-21 05:06:00,
2013-10-21 01:12:00,46.2,43.7,30.03,West,269,0.0,0.0,91,0.00,,,0.00,Wunderground v.1.15,2013-10-21 05:12:00,
2013-10-21 01:17:00,46.1,43.6,30.03,West,269,0.0,0.0,91,0.00,,,0.00,Wunderground v.1.15,2013-10-21 05:17:00,
2013-10-21 01:23:00,46.2,43.7,30.03,West,269,0.0,1.0,91,0.00,,,0.00,Wunderground v.1.15,2013-10-21 05:23:00,
2013-10-21 01:28:00,46.2,43.7,30.03,West,269,0.0,1.0,91,0.00,,,0.00,Wunderground v.1.15,2013-10-21 05:28:00,
2013-10-21 01:33:00,46.3,44.1,30.03,West,269,0.0,0.0,92,0.00,,,0.00,Wunderground v.1.15,2013-10-21 05:33:00,
2013-10-21 01:38:00,46.4,44.2,30.03,West,269,0.0,1.0,92,0.00,,,0.00,Wunderground v.1.15,2013-10-21 05:38:00,
2013-10-21 01:44:00,46.4,44.2,30.03,West,269,0.0,1.0,92,0.00,,,0.00,Wunderground v.1.15,2013-10-21 05:44:00,
2013-10-21 01:49:00,46.4,44.2,30.03,West,269,0.0,1.0,92,0.00,,,0.00,Wunderground v.1.15,2013-10-21 05:49:00,
2013-10-21 01:55:00,46.5,44.3,30.03,West,278,0.0,1.0,92,0.00,,,0.00,Wunderground v.1.15,2013-10-21 05:55:00,
2013-10-21 02:00:00,46.5,44.3,30.03,West,278,0.0,0.0,92,0.00,,,0.00,Wunderground v.1.15,2013-10-21 06:00:00,
2013-10-21 02:06:00,46.6,44.4,30.03,West,278,0.0,0.0,92,0.00,,,0.00,Wunderground v.1.15,2013-10-21 06:06:00,
2013-10-21 02:11:00,46.5,44.3,30.03,West,278,0.0,0.0,92,0.00,,,0.00,Wunderground v.1.15,2013-10-21 06:11:00,
2013-10-21 02:17:00,46.6,44.4,30.03,West,278,0.0,0.0,92,0.00,,,0.00,Wunderground v.1.15,2013-10-21 06:17:00,
2013-10-21 02:22:00,46.6,44.4,30.03,West,278,0.0,1.0,92,0.00,,,0.00,Wunderground v.1.15,2013-10-21 06:22:00,
2013-10-21 02:27:00,46.6,44.4,30.03,West,278,0.0,1.0,92,0.00,,,0.00,Wunderground v.1.15,2013-10-21 06:27:00,
2013-10-21 02:33:00,46.7,44.2,30.04,West,278,0.0,0.0,91,0.00,,,0.00,Wunderground v.1.15,2013-10-21 06:33:00,
2013-10-21 02:39:00,46.8,44.3,30.03,West,278,0.0,2.0,91,0.00,,,0.00,Wunderground v.1.15,2013-10-21 06:39:00,
2013-10-21 02:44:00,47.0,44.5,30.03,West,278,0.0,3.0,91,0.00,,,0.00,Wunderground v.1.15,2013-10-21 06:44:00,
2013-10-21 02:49:00,47.0,44.2,30.04,West,278,0.0,1.0,90,0.00,,,0.00,Wunderground v.1.15,2013-10-21 06:49:00,
2013-10-21 02:55:00,47.2,44.4,30.03,West,278,0.0,2.0,90,0.00,,,0.00,Wunderground v.1.15,2013-10-21 06:55:00,
2013-10-21 03:00:00,47.3,44.5,30.03,West,278,0.0,0.0,90,0.00,,,0.00,Wunderground v.1.15,2013-10-21 07:00:00,
2013-10-21 03:06:00,47.4,44.6,30.03,West,278,0.0,1.0,90,0.00,,,0.00,Wunderground v.1.15,2013-10-21 07:06:00,
2013-10-21 03:12:00,47.5,44.7,30.03,West,278,0.0,2.0,90,0.00,,,0.00,Wunderground v.1.15,2013-10-21 07:12:00,
2013-10-21 03:18:00,47.5,44.7,30.03,West,280,1.0,2.0,90,0.00,,,0.00,Wunderground v.1.15,2013-10-21 07:18:00,
2013-10-21 03:24:00,47.6,44.8,30.03,West,280,0.0,0.0,90,0.00,,,0.00,Wunderground v.1.15,2013-10-21 07:24:00,
2013-10-21 03:29:00,47.6,44.8,30.03,West,280,0.0,0.0,90,0.00,,,0.00,Wunderground v.1.15,2013-10-21 07:29:00,
2013-10-21 03:34:00,47.6,44.8,30.03,West,280,0.0,0.0,90,0.00,,,0.00,Wunderground v.1.15,2013-10-21 07:34:00,
2013-10-21 03:40:00,47.6,44.5,30.03,West,280,0.0,0.0,89,0.00,,,0.00,Wunderground v.1.15,2013-10-21 07:40:00,
2013-10-21 03:48:00,47.6,44.5,30.03,West,280,0.0,1.0,89,0.00,,,0.00,Wunderground v.1.15,2013-10-21 07:48:00,
2013-10-21 03:54:00,47.7,44.6,30.03,West,280,1.0,1.0,89,0.00,,,0.00,Wunderground v.1.15,2013-10-21 07:54:00,
2013-10-21 03:59:00,47.7,44.3,30.03,West,280,0.0,2.0,88,0.00,,,0.00,Wunderground v.1.15,2013-10-21 07:59:00,
2013-10-21 04:05:00,47.7,44.3,30.03,West,280,0.0,2.0,88,0.00,,,0.00,Wunderground v.1.15,2013-10-21 08:05:00,
2013-10-21 04:10:00,47.7,44.3,30.03,West,280,1.0,1.0,88,0.00,,,0.00,Wunderground v.1.15,2013-10-21 08:10:00,
2013-10-21 04:16:00,47.7,44.6,30.04,West,280,1.0,2.0,89,0.00,,,0.00,Wunderground v.1.15,2013-10-21 08:16:00,
2013-10-21 04:22:00,47.7,44.3,30.04,West,280,1.0,1.0,88,0.00,,,0.00,Wunderground v.1.15,2013-10-21 08:22:00,
2013-10-21 04:27:00,47.6,44.2,30.04,West,280,0.0,1.0,88,0.00,,,0.00,Wunderground v.1.15,2013-10-21 08:27:00,
2013-10-21 04:32:00,47.6,44.5,30.04,West,280,0.0,1.0,89,0.00,,,0.00,Wunderground v.1.15,2013-10-21 08:32:00,
2013-10-21 04:38:00,47.5,44.7,30.04,West,280,0.0,2.0,90,0.00,,,0.00,Wunderground v.1.15,2013-10-21 08:38:00,
2013-10-21 04:43:00,47.5,44.7,30.04,West,280,0.0,0.0,90,0.00,,,0.00,Wunderground v.1.15,2013-10-21 08:43:00,
2013-10-21 04:48:00,47.4,44.6,30.04,West,280,0.0,0.0,90,0.00,,,0.00,Wunderground v.1.15,2013-10-21 08:48:00,
2013-10-21 04:54:00,47.3,44.5,30.04,West,280,0.0,0.0,90,0.00,,,0.00,Wunderground v.1.15,2013-10-21 08:54:00,
2013-10-21 05:01:00,47.1,44.6,30.04,West,280,0.0,0.0,91,0.00,,,0.00,Wunderground v.1.15,2013-10-21 09:01:00,
2013-10-21 05:06:00,47.0,44.5,30.05,West,280,0.0,0.0,91,0.00,,,0.00,Wunderground v.1.15,2013-10-21 09:06:00,
2013-10-21 05:12:00,46.9,44.4,30.05,West,280,0.0,1.0,91,0.00,,,0.00,Wunderground v.1.15,2013-10-21 09:12:00,
2013-10-21 05:18:00,46.7,44.2,30.05,West,280,0.0,1.0,91,0.00,,,0.00,Wunderground v.1.15,2013-10-21 09:18:00,
2013-10-21 05:24:00,46.6,44.1,30.05,West,280,0.0,0.0,91,0.00,,,0.00,Wunderground v.1.15,2013-10-21 09:24:00,
2013-10-21 05:30:00,46.5,44.0,30.05,West,280,0.0,0.0,91,0.00,,,0.00,Wunderground v.1.15,2013-10-21 09:30:00,
2013-10-21 05:35:00,46.4,44.2,30.05,West,280,0.0,0.0,92,0.00,,,0.00,Wunderground v.1.15,2013-10-21 09:35:00,
2013-10-21 05:40:00,46.4,44.2,30.06,West,280,0.0,0.0,92,0.00,,,0.00,Wunderground v.1.15,2013-10-21 09:40:00,
2013-10-21 05:45:00,46.5,44.3,30.05,West,280,0.0,0.0,92,0.00,,,0.00,Wunderground v.1.15,2013-10-21 09:45:00,
2013-10-21 05:51:00,46.6,44.4,30.05,West,280,0.0,0.0,92,0.00,,,0.00,Wunderground v.1.15,2013-10-21 09:51:00,
2013-10-21 05:56:00,46.8,44.9,30.06,West,280,0.0,2.0,93,0.00,,,0.00,Wunderground v.1.15,2013-10-21 09:56:00,
2013-10-21 06:01:00,47.1,44.9,30.06,West,280,0.0,0.0,92,0.00,,,0.00,Wunderground v.1.15,2013-10-21 10:01:00,
2013-10-21 06:06:00,47.3,45.1,30.06,West,280,0.0,0.0,92,0.00,,,0.00,Wunderground v.1.15,2013-10-21 10:06:00,
2013-10-21 06:11:00,47.5,45.3,30.05,West,280,0.0,0.0,92,0.00,,,0.00,Wunderground v.1.15,2013-10-21 10:11:00,
2013-10-21 06:17:00,47.7,45.5,30.05,West,280,0.0,0.0,92,0.00,,,0.00,Wunderground v.1.15,2013-10-21 10:17:00,
2013-10-21 06:23:00,47.8,45.6,30.05,West,280,0.0,0.0,92,0.00,,,0.00,Wunderground v.1.15,2013-10-21 10:23:00,
2013-10-21 06:29:00,47.9,45.4,30.05,West,280,0.0,0.0,91,0.00,,,0.00,Wunderground v.1.15,2013-10-21 10:29:00,
2013-10-21 06:35:00,48.1,45.6,30.05,West,280,0.0,0.0,91,0.00,,,0.00,Wunderground v.1.15,2013-10-21 10:35:00,
2013-10-21 06:41:00,48.1,45.6,30.05,West,280,0.0,0.0,91,0.00,,,0.00,Wunderground v.1.15,2013-10-21 10:41:00,
2013-10-21 06:48:00,47.9,45.1,30.05,West,280,0.0,0.0,90,0.00,,,0.00,Wunderground v.1.15,2013-10-21 10:48:00,
2013-10-21 06:54:00,47.8,45.0,30.05,West,280,0.0,0.0,90,0.00,,,0.00,Wunderground v.1.15,2013-10-21 10:54:00,
2013-10-21 06:59:00,47.8,45.0,30.05,West,280,0.0,1.0,90,0.00,,,0.00,Wunderground v.1.15,2013-10-21 10:59:00,
2013-10-21 07:04:00,47.6,44.8,30.05,West,280,0.0,0.0,90,0.00,,,0.00,Wunderground v.1.15,2013-10-21 11:04:00,
2013-10-21 07:10:00,47.5,44.7,30.05,West,280,0.0,0.0,90,0.00,,,0.00,Wunderground v.1.15,2013-10-21 11:10:00,
2013-10-21 07:15:00,47.4,44.6,30.05,West,280,0.0,1.0,90,0.00,,,0.00,Wunderground v.1.15,2013-10-21 11:15:00,
2013-10-21 07:21:00,47.3,44.8,30.05,West,280,0.0,0.0,91,0.00,,,0.00,Wunderground v.1.15,2013-10-21 11:21:00,
2013-10-21 07:27:00,47.2,44.7,30.06,West,280,0.0,0.0,91,0.00,,,0.00,Wunderground v.1.15,2013-10-21 11:27:00,
2013-10-21 07:33:00,47.2,44.7,30.06,West,280,0.0,0.0,91,0.00,,,0.00,Wunderground v.1.15,2013-10-21 11:33:00,
2013-10-21 07:38:00,47.1,44.9,30.05,West,280,0.0,0.0,92,0.00,,,0.00,Wunderground v.1.15,2013-10-21 11:38:00,
2013-10-21 07:44:00,47.0,44.8,30.06,West,280,0.0,1.0,92,0.00,,,0.00,Wunderground v.1.15,2013-10-21 11:44:00,
2013-10-21 07:49:00,46.8,44.3,30.06,West,280,0.0,0.0,91,0.00,,,0.00,Wunderground v.1.15,2013-10-21 11:49:00,
2013-10-21 07:55:00,46.6,44.1,30.07,West,280,0.0,0.0,91,0.00,,,0.00,Wunderground v.1.15,2013-10-21 11:55:00,
2013-10-21 08:00:00,46.3,43.5,30.07,West,280,0.0,0.0,90,0.00,,,0.00,Wunderground v.1.15,2013-10-21 12:00:00,
2013-10-21 08:06:00,45.9,43.1,30.07,West,280,0.0,0.0,90,0.00,,,0.00,Wunderground v.1.15,2013-10-21 12:06:00,
2013-10-21 08:12:00,45.6,43.1,30.08,West,280,0.0,0.0,91,0.00,,,0.00,Wunderground v.1.15,2013-10-21 12:12:00,
2013-10-21 08:18:00,45.5,43.3,30.08,West,280,0.0,0.0,92,0.00,,,0.00,Wunderground v.1.15,2013-10-21 12:18:00,
2013-10-21 08:23:00,45.4,43.2,30.08,West,280,0.0,0.0,92,0.00,,,0.00,Wunderground v.1.15,2013-10-21 12:23:00,
2013-10-21 08:29:00,45.5,43.6,30.08,West,280,0.0,0.0,93,0.00,,,0.00,Wunderground v.1.15,2013-10-21 12:29:00,
2013-10-21 08:35:00,45.6,43.7,30.08,West,280,0.0,1.0,93,0.00,,,0.00,Wunderground v.1.15,2013-10-21 12:35:00,
2013-10-21 08:40:00,45.7,43.8,30.08,West,280,0.0,0.0,93,0.00,,,0.00,Wunderground v.1.15,2013-10-21 12:40:00,
2013-10-21 08:49:00,45.9,44.0,30.08,West,280,0.0,0.0,93,0.00,,,0.00,Wunderground v.1.15,2013-10-21 12:49:00,
2013-10-21 08:55:00,46.0,43.8,30.08,West,280,0.0,0.0,92,0.00,,,0.00,Wunderground v.1.15,2013-10-21 12:55:00,
2013-10-21 09:00:00,46.2,44.0,30.08,West,280,0.0,0.0,92,0.00,,,0.00,Wunderground v.1.15,2013-10-21 13:00:00,
2013-10-21 09:06:00,46.5,44.6,30.08,West,280,0.0,0.0,93,0.00,,,0.00,Wunderground v.1.15,2013-10-21 13:06:00,
2013-10-21 09:11:00,46.9,45.0,30.08,West,280,0.0,1.0,93,0.00,,,0.00,Wunderground v.1.15,2013-10-21 13:11:00,
2013-10-21 09:17:00,47.4,45.5,30.08,West,280,0.0,1.0,93,0.00,,,0.00,Wunderground v.1.15,2013-10-21 13:17:00,
2013-10-21 09:22:00,47.9,45.7,30.08,WNW,283,0.0,1.0,92,0.00,,,0.00,Wunderground v.1.15,2013-10-21 13:22:00,
2013-10-21 09:27:00,48.7,46.5,30.08,WNW,284,0.0,1.0,92,0.00,,,0.00,Wunderground v.1.15,2013-10-21 13:27:00,
2013-10-21 09:33:00,49.2,46.4,30.09,WNW,284,0.0,0.0,90,0.00,,,0.00,Wunderground v.1.15,2013-10-21 13:33:00,
2013-10-21 09:39:00,49.6,46.8,30.09,WNW,284,0.0,0.0,90,0.00,,,0.00,Wunderground v.1.15,2013-10-21 13:39:00,
2013-10-21 09:45:00,50.0,46.9,30.09,WNW,284,0.0,0.0,89,0.00,,,0.00,Wunderground v.1.15,2013-10-21 13:45:00,
2013-10-21 09:51:00,50.1,47.0,30.09,WNW,284,0.0,0.0,89,0.00,,,0.00,Wunderground v.1.15,2013-10-21 13:51:00,
2013-10-21 09:56:00,50.3,47.2,30.09,WNW,284,0.0,1.0,89,0.00,,,0.00,Wunderground v.1.15,2013-10-21 13:56:00,
2013-10-21 10:01:00,50.5,47.7,30.09,WNW,284,0.0,0.0,90,0.00,,,0.00,Wunderground v.1.15,2013-10-21 14:01:00,
2013-10-21 10:07:00,51.1,48.0,30.09,WNW,284,0.0,0.0,89,0.00,,,0.00,Wunderground v.1.15,2013-10-21 14:07:00,
2013-10-21 10:13:00,51.7,48.3,30.10,WSW,245,0.0,0.0,88,0.00,,,0.00,Wunderground v.1.15,2013-10-21 14:13:00,
2013-10-21 10:19:00,52.2,48.4,30.09,SW,223,0.0,0.0,87,0.00,,,0.00,Wunderground v.1.15,2013-10-21 14:19:00,
2013-10-21 10:24:00,52.6,48.5,30.09,SW,223,0.0,0.0,86,0.00,,,0.00,Wunderground v.1.15,2013-10-21 14:24:00,
2013-10-21 10:29:00,52.9,48.5,30.09,SW,222,0.0,0.0,85,0.00,,,0.00,Wunderground v.1.15,2013-10-21 14:29:00,
2013-10-21 10:35:00,53.3,48.9,30.08,NNW,336,0.0,1.0,85,0.00,,,0.00,Wunderground v.1.15,2013-10-21 14:35:00,
2013-10-21 10:41:00,53.8,49.4,30.08,NW,319,0.0,1.0,85,0.00,,,0.00,Wunderground v.1.15,2013-10-21 14:41:00,
2013-10-21 10:48:00,54.3,49.9,30.08,NW,323,0.0,1.0,85,0.00,,,0.00,Wunderground v.1.15,2013-10-21 14:48:00,
2013-10-21 10:54:00,54.7,50.0,30.08,NW,310,0.0,1.0,84,0.00,,,0.00,Wunderground v.1.15,2013-10-21 14:54:00,
2013-10-21 11:00:00,55.1,50.4,30.08,WNW,297,0.0,0.0,84,0.00,,,0.00,Wunderground v.1.15,2013-10-21 15:00:00,
2013-10-21 11:06:00,55.5,50.7,30.07,SSW,192,0.0,1.0,84,0.00,,,0.00,Wunderground v.1.15,2013-10-21 15:06:00,
2013-10-21 11:12:00,55.7,50.6,30.08,WSW,253,0.0,0.0,83,0.00,,,0.00,Wunderground v.1.15,2013-10-21 15:12:00,
2013-10-21 11:17:00,55.9,50.8,30.08,ESE,112,0.0,2.0,83,0.00,,,0.00,Wunderground v.1.15,2013-10-21 15:17:00,
2013-10-21 11:23:00,56.2,51.1,30.07,SE,133,0.0,0.0,83,0.00,,,0.00,Wunderground v.1.15,2013-10-21 15:23:00,
2013-10-21 11:29:00,56.7,51.3,30.07,East,96,0.0,2.0,82,0.00,,,0.00,Wunderground v.1.15,2013-10-21 15:29:00,
2013-10-21 11:35:00,56.9,51.5,30.06,SW,230,0.0,1.0,82,0.00,,,0.00,Wunderground v.1.15,2013-10-21 15:35:00,
2013-10-21 11:41:00,57.0,51.2,30.06,SW,230,0.0,0.0,81,0.00,,,0.00,Wunderground v.1.15,2013-10-21 15:41:00,
2013-10-21 11:48:00,57.1,51.3,30.07,SW,223,0.0,0.0,81,0.00,,,0.00,Wunderground v.1.15,2013-10-21 15:48:00,
2013-10-21 11:54:00,57.4,51.6,30.06,North,355,0.0,1.0,81,0.00,,,0.00,Wunderground v.1.15,2013-10-21 15:54:00,
2013-10-21 12:00:00,57.7,51.6,30.06,NE,46,1.0,1.0,80,0.00,,,0.00,Wunderground v.1.15,2013-10-21 16:00:00,
2013-10-21 12:06:00,58.4,51.9,30.06,ENE,69,1.0,2.0,79,0.00,,,0.00,Wunderground v.1.15,2013-10-21 16:06:00,
2013-10-21 12:12:00,58.9,51.0,30.05,ENE,76,1.0,2.0,75,0.00,,,0.00,Wunderground v.1.15,2013-10-21 16:12:00,
2013-10-21 12:17:00,59.0,51.4,30.06,NE,50,1.0,2.0,76,0.00,,,0.00,Wunderground v.1.15,2013-10-21 16:17:00,
2013-10-21 12:23:00,59.7,52.8,30.06,North,5,0.0,1.0,78,0.00,,,0.00,Wunderground v.1.15,2013-10-21 16:23:00,
2013-10-21 12:28:00,59.8,51.5,30.05,ENE,61,0.0,1.0,74,0.00,,,0.00,Wunderground v.1.15,2013-10-21 16:28:00,
2013-10-21 12:34:00,59.6,51.3,30.05,ENE,67,1.0,1.0,74,0.00,,,0.00,Wunderground v.1.15,2013-10-21 16:34:00,
2013-10-21 12:40:00,59.6,51.3,30.04,ENE,67,0.0,0.0,74,0.00,,,0.00,Wunderground v.1.15,2013-10-21 16:40:00,
2013-10-21 12:45:00,59.7,52.1,30.04,NNE,28,0.0,1.0,76,0.00,,,0.00,Wunderground v.1.15,2013-10-21 16:45:00,
2013-10-21 12:50:00,59.9,51.6,30.04,NNE,32,1.0,1.0,74,0.00,,,0.00,Wunderground v.1.15,2013-10-21 16:50:00,
2013-10-21 12:56:00,60.1,51.8,30.04,SE,137,1.0,3.0,74,0.00,,,0.00,Wunderground v.1.15,2013-10-21 16:56:00,
2013-10-21 13:01:00,60.5,51.8,30.03,NE,53,1.0,2.0,73,0.00,,,0.00,Wunderground v.1.15,2013-10-21 17:01:00,
2013-10-21 13:06:00,60.7,52.0,30.03,East,97,1.0,2.0,73,0.00,,,0.00,Wunderground v.1.15,2013-10-21 17:06:00,
2013-10-21 13:11:00,60.7,51.6,30.02,NE,41,1.0,2.0,72,0.00,,,0.00,Wunderground v.1.15,2013-10-21 17:11:00,
2013-10-21 13:17:00,61.2,52.5,30.02,NE,56,1.0,2.0,73,0.00,,,0.00,Wunderground v.1.15,2013-10-21 17:17:00,
2013-10-21 13:23:00,61.4,51.9,30.01,ENE,64,1.0,3.0,71,0.00,,,0.00,Wunderground v.1.15,2013-10-21 17:23:00,
2013-10-21 13:28:00,61.3,52.2,30.01,SSW,202,1.0,3.0,72,0.00,,,0.00,Wunderground v.1.15,2013-10-21 17:28:00,
2013-10-21 13:34:00,61.6,52.5,30.00,East,88,1.0,2.0,72,0.00,,,0.00,Wunderground v.1.15,2013-10-21 17:34:00,
2013-10-21 13:40:00,61.8,51.9,29.99,North,5,1.0,1.0,70,0.00,,,0.00,Wunderground v.1.15,2013-10-21 17:40:00,
2013-10-21 13:48:00,61.6,52.5,29.99,ENE,71,1.0,2.0,72,0.00,,,0.00,Wunderground v.1.15,2013-10-21 17:48:00,
2013-10-21 13:54:00,61.7,52.6,29.98,ENE,57,1.0,2.0,72,0.00,,,0.00,Wunderground v.1.15,2013-10-21 17:54:00,
2013-10-21 13:59:00,61.4,51.1,29.98,ENE,63,1.0,3.0,69,0.00,,,0.00,Wunderground v.1.15,2013-10-21 17:59:00,
2013-10-21 14:05:00,61.4,50.7,29.99,ENE,71,2.0,3.0,68,0.00,,,0.00,Wunderground v.1.15,2013-10-21 18:05:00,
2013-10-21 14:10:00,61.8,52.3,29.98,ENE,71,2.0,2.0,71,0.00,,,0.00,Wunderground v.1.15,2013-10-21 18:10:00,
2013-10-21 14:16:00,61.7,51.0,29.97,ENE,76,1.0,2.0,68,0.00,,,0.00,Wunderground v.1.15,2013-10-21 18:16:00,
2013-10-21 14:21:00,61.7,52.2,29.97,East,97,0.0,2.0,71,0.00,,,0.00,Wunderground v.1.15,2013-10-21 18:21:00,
2013-10-21 14:27:00,62.0,50.9,29.98,ENE,59,1.0,2.0,67,0.00,,,0.00,Wunderground v.1.15,2013-10-21 18:27:00,
2013-10-21 14:32:00,62.2,51.1,29.97,NE,47,1.0,3.0,67,0.00,,,0.00,Wunderground v.1.15,2013-10-21 18:32:00,
2013-10-21 14:37:00,62.1,51.8,29.97,ENE,69,2.0,3.0,69,0.00,,,0.00,Wunderground v.1.15,2013-10-21 18:37:00,
2013-10-21 14:42:00,62.0,52.1,29.97,ENE,69,2.0,2.0,70,0.00,,,0.00,Wunderground v.1.15,2013-10-21 18:42:00,
2013-10-21 14:48:00,61.5,52.0,29.96,NE,49,1.0,1.0,71,0.00,,,0.00,Wunderground v.1.15,2013-10-21 18:48:00,
2013-10-21 14:54:00,61.1,52.0,29.97,NE,49,1.0,1.0,72,0.00,,,0.00,Wunderground v.1.15,2013-10-21 18:54:00,
2013-10-21 15:00:00,60.8,52.5,29.96,ENE,57,0.0,0.0,74,0.00,,,0.00,Wunderground v.1.15,2013-10-21 19:00:00,
2013-10-21 15:06:00,60.9,52.9,29.96,NE,53,0.0,1.0,75,0.00,,,0.00,Wunderground v.1.15,2013-10-21 19:06:00,
2013-10-21 15:12:00,61.2,53.2,29.96,NE,39,1.0,1.0,75,0.00,,,0.00,Wunderground v.1.15,2013-10-21 19:12:00,
2013-10-21 15:17:00,61.3,53.3,29.96,NE,39,1.0,1.0,75,0.00,,,0.00,Wunderground v.1.15,2013-10-21 19:17:00,
2013-10-21 15:23:00,61.3,53.3,29.95,NE,42,0.0,1.0,75,0.00,,,0.00,Wunderground v.1.15,2013-10-21 19:23:00,
2013-10-21 15:29:00,61.2,53.6,29.95,West,261,1.0,2.0,76,0.00,,,0.00,Wunderground v.1.15,2013-10-21 19:29:00,
2013-10-21 15:35:00,61.3,53.7,29.95,NE,53,1.0,1.0,76,0.00,,,0.00,Wunderground v.1.15,2013-10-21 19:35:00,
2013-10-21 15:40:00,61.2,53.6,29.94,NE,50,0.0,1.0,76,0.00,,,0.00,Wunderground v.1.15,2013-10-21 19:40:00,
2013-10-21 15:48:00,60.9,53.6,29.94,NE,50,0.0,1.0,77,0.00,,,0.00,Wunderground v.1.15,2013-10-21 19:48:00,
2013-10-21 15:54:00,60.8,53.5,29.93,NE,50,0.0,1.0,77,0.00,,,0.00,Wunderground v.1.15,2013-10-21 19:54:00,
2013-10-21 15:59:00,60.7,53.8,29.93,NE,52,0.0,2.0,78,0.00,,,0.00,Wunderground v.1.15,2013-10-21 19:59:00,
2013-10-21 16:04:00,60.8,53.9,29.93,SSE,160,0.0,1.0,78,0.00,,,0.00,Wunderground v.1.15,2013-10-21 20:04:00,
2013-10-21 16:10:00,61.0,54.1,29.93,East,81,0.0,1.0,78,0.00,,,0.00,Wunderground v.1.15,2013-10-21 20:10:00,
2013-10-21 16:16:00,61.0,54.1,29.93,East,81,0.0,1.0,78,0.00,,,0.00,Wunderground v.1.15,2013-10-21 20:16:00,
2013-10-21 16:22:00,60.9,54.3,29.93,East,81,0.0,0.0,79,0.00,,,0.00,Wunderground v.1.15,2013-10-21 20:22:00,
2013-10-21 16:28:00,60.9,54.0,29.93,South,186,0.0,0.0,78,0.00,,,0.00,Wunderground v.1.15,2013-10-21 20:28:00,
2013-10-21 16:33:00,60.9,54.0,29.93,SE,133,0.0,0.0,78,0.00,,,0.00,Wunderground v.1.15,2013-10-21 20:33:00,
2013-10-21 16:39:00,60.9,54.0,29.93,SSE,148,0.0,1.0,78,0.00,,,0.00,Wunderground v.1.15,2013-10-21 20:39:00,
2013-10-21 16:45:00,60.9,54.3,29.94,East,82,0.0,1.0,79,0.00,,,0.00,Wunderground v.1.15,2013-10-21 20:45:00,
2013-10-21 16:50:00,60.7,54.5,29.94,NE,38,0.0,1.0,80,0.00,,,0.00,Wunderground v.1.15,2013-10-21 20:50:00,
2013-10-21 16:56:00,60.4,54.2,29.95,NE,38,0.0,2.0,80,0.00,,,0.00,Wunderground v.1.15,2013-10-21 20:56:00,
2013-10-21 17:01:00,60.2,54.3,29.95,NE,38,0.0,0.0,81,0.00,,,0.00,Wunderground v.1.15,2013-10-21 21:01:00,
2013-10-21 17:06:00,60.0,54.2,29.95,NE,38,0.0,0.0,81,0.00,,,0.00,Wunderground v.1.15,2013-10-21 21:06:00,
2013-10-21 17:12:00,59.8,54.3,29.95,NE,38,0.0,0.0,82,0.00,,,0.00,Wunderground v.1.15,2013-10-21 21:12:00,
2013-10-21 17:17:00,59.6,54.1,29.94,NE,38,0.0,0.0,82,0.00,,,0.00,Wunderground v.1.15,2013-10-21 21:17:00,
2013-10-21 17:23:00,59.4,53.9,29.94,NE,38,0.0,0.0,82,0.00,,,0.00,Wunderground v.1.15,2013-10-21 21:23:00,
2013-10-21 17:28:00,59.3,54.1,29.94,NE,38,0.0,0.0,83,0.00,,,0.00,Wunderground v.1.15,2013-10-21 21:28:00,
2013-10-21 17:34:00,59.1,53.9,29.94,NE,38,0.0,1.0,83,0.00,,,0.00,Wunderground v.1.15,2013-10-21 21:34:00,
2013-10-21 17:40:00,59.0,53.8,29.94,NE,38,0.0,0.0,83,0.00,,,0.00,Wunderground v.1.15,2013-10-21 21:40:00,
2013-10-21 17:48:00,58.9,54.1,29.94,NE,38,0.0,0.0,84,0.00,,,0.00,Wunderground v.1.15,2013-10-21 21:48:00,
2013-10-21 17:54:00,58.7,54.2,29.94,NE,38,0.0,0.0,85,0.00,,,0.00,Wunderground v.1.15,2013-10-21 21:54:00,
2013-10-21 17:59:00,58.6,54.1,29.95,NE,38,0.0,1.0,85,0.00,,,0.00,Wunderground v.1.15,2013-10-21 21:59:00,
2013-10-21 18:04:00,58.4,53.9,29.95,NE,38,0.0,0.0,85,0.00,,,0.00,Wunderground v.1.15,2013-10-21 22:04:00,
2013-10-21 18:10:00,58.3,54.1,29.94,NE,38,0.0,0.0,86,0.00,,,0.00,Wunderground v.1.15,2013-10-21 22:10:00,
2013-10-21 18:15:00,58.1,53.9,29.95,NE,38,0.0,0.0,86,0.00,,,0.00,Wunderground v.1.15,2013-10-21 22:15:00,
2013-10-21 18:21:00,58.0,54.2,29.95,NE,38,0.0,0.0,87,0.00,,,0.00,Wunderground v.1.15,2013-10-21 22:21:00,
2013-10-21 18:26:00,57.8,54.0,29.94,NE,38,0.0,0.0,87,0.00,,,0.00,Wunderground v.1.15,2013-10-21 22:26:00,
2013-10-21 18:32:00,57.6,54.1,29.95,NE,38,0.0,0.0,88,0.00,,,0.00,Wunderground v.1.15,2013-10-21 22:32:00,
2013-10-21 18:38:00,57.4,53.9,29.95,NE,38,0.0,0.0,88,0.00,,,0.00,Wunderground v.1.15,2013-10-21 22:38:00,
2013-10-21 18:44:00,57.1,53.9,29.94,NE,38,0.0,0.0,89,0.00,,,0.00,Wunderground v.1.15,2013-10-21 22:44:00,
2013-10-21 18:49:00,57.0,53.8,29.94,NE,38,0.0,0.0,89,0.00,,,0.00,Wunderground v.1.15,2013-10-21 22:49:00,
2013-10-21 18:54:00,56.8,53.6,29.94,NE,38,0.0,0.0,89,0.00,,,0.00,Wunderground v.1.15,2013-10-21 22:54:00,
2013-10-21 19:00:00,56.6,53.4,29.94,NE,38,0.0,0.0,89,0.00,,,0.00,Wunderground v.1.15,2013-10-21 23:00:00,
2013-10-21 19:06:00,56.3,53.1,29.94,NE,38,0.0,0.0,89,0.00,,,0.00,Wunderground v.1.15,2013-10-21 23:06:00,
2013-10-21 19:11:00,56.0,52.8,29.94,NE,38,0.0,0.0,89,0.00,,,0.00,Wunderground v.1.15,2013-10-21 23:11:00,
2013-10-21 19:16:00,55.7,52.8,29.94,NE,38,0.0,0.0,90,0.00,,,0.00,Wunderground v.1.15,2013-10-21 23:16:00,
2013-10-21 19:22:00,55.4,52.5,29.94,NE,38,0.0,0.0,90,0.00,,,0.00,Wunderground v.1.15,2013-10-21 23:22:00,
2013-10-21 19:27:00,55.2,52.6,29.94,NE,38,0.0,0.0,91,0.00,,,0.00,Wunderground v.1.15,2013-10-21 23:27:00,
2013-10-21 19:33:00,55.0,52.4,29.94,NE,38,0.0,0.0,91,0.00,,,0.00,Wunderground v.1.15,2013-10-21 23:33:00,
2013-10-21 19:39:00,54.7,52.1,29.94,NE,38,0.0,0.0,91,0.00,,,0.00,Wunderground v.1.15,2013-10-21 23:39:00,
2013-10-21 19:44:00,54.6,52.0,29.94,NE,38,0.0,0.0,91,0.00,,,0.00,Wunderground v.1.15,2013-10-21 23:44:00,
2013-10-21 19:50:00,54.3,51.7,29.95,NE,38,0.0,0.0,91,0.00,,,0.00,Wunderground v.1.15,2013-10-21 23:50:00,
2013-10-21 19:55:00,54.1,51.5,29.95,NE,38,0.0,0.0,91,0.00,,,0.00,Wunderground v.1.15,2013-10-21 23:55:00,
2013-10-21 20:01:00,53.9,51.6,29.94,NE,38,0.0,0.0,92,0.00,,,0.00,Wunderground v.1.15,2013-10-22 00:01:00,
2013-10-21 20:06:00,53.7,51.4,29.95,NE,38,0.0,0.0,92,0.00,,,0.00,Wunderground v.1.15,2013-10-22 00:06:00,
2013-10-21 20:12:00,53.5,51.2,29.95,NE,38,0.0,0.0,92,0.00,,,0.00,Wunderground v.1.15,2013-10-22 00:12:00,
2013-10-21 20:18:00,53.4,51.4,29.95,NE,38,0.0,0.0,93,0.00,,,0.00,Wunderground v.1.15,2013-10-22 00:18:00,
2013-10-21 20:23:00,53.3,51.3,29.95,NE,38,0.0,0.0,93,0.00,,,0.00,Wunderground v.1.15,2013-10-22 00:23:00,
2013-10-21 20:29:00,53.2,51.2,29.95,NE,38,0.0,0.0,93,0.00,,,0.00,Wunderground v.1.15,2013-10-22 00:29:00,
2013-10-21 20:34:00,53.1,51.1,29.95,NE,38,0.0,0.0,93,0.00,,,0.00,Wunderground v.1.15,2013-10-22 00:34:00,
2013-10-21 20:40:00,53.1,51.1,29.95,NE,38,0.0,0.0,93,0.00,,,0.00,Wunderground v.1.15,2013-10-22 00:40:00,
2013-10-21 20:45:00,53.0,51.3,29.95,NE,38,0.0,0.0,94,0.00,,,0.00,Wunderground v.1.15,2013-10-22 00:45:00,
2013-10-21 20:50:00,53.0,51.3,29.94,NE,38,0.0,0.0,94,0.00,,,0.00,Wunderground v.1.15,2013-10-22 00:50:00,
2013-10-21 20:56:00,53.0,51.3,29.94,NE,38,0.0,0.0,94,0.00,,,0.00,Wunderground v.1.15,2013-10-22 00:56:00,
2013-10-21 21:01:00,52.9,51.2,29.94,NE,38,0.0,0.0,94,0.00,,,0.00,Wunderground v.1.15,2013-10-22 01:01:00,
2013-10-21 21:06:00,52.8,51.1,29.94,NE,38,0.0,0.0,94,0.00,,,0.00,Wunderground v.1.15,2013-10-22 01:06:00,
2013-10-21 21:12:00,52.8,51.1,29.94,NE,38,0.0,0.0,94,0.00,,,0.00,Wunderground v.1.15,2013-10-22 01:12:00,
2013-10-21 21:17:00,52.8,51.1,29.94,NE,38,0.0,0.0,94,0.00,,,0.00,Wunderground v.1.15,2013-10-22 01:17:00,
2013-10-21 21:23:00,52.8,51.4,29.94,NE,38,0.0,0.0,95,0.00,,,0.00,Wunderground v.1.15,2013-10-22 01:23:00,
2013-10-21 21:29:00,53.1,51.7,29.93,NE,38,0.0,0.0,95,0.00,,,0.00,Wunderground v.1.15,2013-10-22 01:29:00,
2013-10-21 21:34:00,53.1,51.7,29.93,NE,38,0.0,0.0,95,0.00,,,0.00,Wunderground v.1.15,2013-10-22 01:34:00,
2013-10-21 21:40:00,53.2,51.8,29.94,NE,38,0.0,0.0,95,0.00,,,0.00,Wunderground v.1.15,2013-10-22 01:40:00,
2013-10-21 21:48:00,53.2,51.8,29.94,NE,38,0.0,0.0,95,0.00,,,0.00,Wunderground v.1.15,2013-10-22 01:48:00,
2013-10-21 21:54:00,53.2,51.8,29.94,NE,38,0.0,0.0,95,0.00,,,0.00,Wunderground v.1.15,2013-10-22 01:54:00,
2013-10-21 22:00:00,53.2,51.8,29.94,NE,38,0.0,0.0,95,0.00,,,0.00,Wunderground v.1.15,2013-10-22 02:00:00,
2013-10-21 22:06:00,53.2,51.8,29.93,NE,38,0.0,0.0,95,0.00,,,0.00,Wunderground v.1.15,2013-10-22 02:06:00,
2013-10-21 22:12:00,53.2,51.8,29.93,NE,38,0.0,0.0,95,0.00,,,0.00,Wunderground v.1.15,2013-10-22 02:12:00,
2013-10-21 22:18:00,53.2,51.8,29.92,NE,38,0.0,0.0,95,0.00,,,0.00,Wunderground v.1.15,2013-10-22 02:18:00,
2013-10-21 22:23:00,53.2,51.8,29.92,NE,38,0.0,0.0,95,0.00,,,0.00,Wunderground v.1.15,2013-10-22 02:23:00,
2013-10-21 22:29:00,53.2,51.5,29.93,NE,38,0.0,0.0,94,0.00,,,0.00,Wunderground v.1.15,2013-10-22 02:29:00,
2013-10-21 22:34:00,53.1,51.4,29.92,NE,38,0.0,0.0,94,0.00,,,0.00,Wunderground v.1.15,2013-10-22 02:34:00,
2013-10-21 22:40:00,53.0,51.3,29.92,NE,38,0.0,0.0,94,0.00,,,0.00,Wunderground v.1.15,2013-10-22 02:40:00,
2013-10-21 23:48:00,52.1,50.7,29.93,NE,38,0.0,0.0,95,0.00,,,0.00,Wunderground v.1.15,2013-10-22 03:48:00,
2013-10-21 23:54:00,52.1,50.4,29.94,NE,38,0.0,0.0,94,0.00,,,0.00,Wunderground v.1.15,2013-10-22 03:54:00,